createdAt,value
2023-01-06T00:01:58.370Z,96.45
2023-01-06T00:03:59.379Z,96.44
2023-01-06T00:06:00.530Z,96.43
2023-01-06T00:08:02.003Z,96.42
2023-01-06T00:10:03.518Z,96.4
2023-01-06T00:12:05.242Z,96.36
2023-01-06T00:14:06.260Z,96.35
2023-01-06T00:16:07.714Z,96.32
2023-01-06T00:18:09.184Z,96.33
2023-01-06T00:20:10.564Z,96.35
2023-01-06T00:22:11.694Z,96.36
2023-01-06T00:24:12.649Z,96.38
2023-01-06T00:26:14.529Z,96.38
2023-01-06T00:28:16.390Z,96.4
2023-01-06T00:30:18.251Z,96.4
2023-01-06T00:32:19.580Z,96.39
2023-01-06T00:34:21.050Z,96.38
2023-01-06T00:36:22.671Z,96.33
2023-01-06T00:40:25.497Z,96.29
2023-01-06T00:42:27.153Z,96.19
2023-01-06T00:44:28.625Z,96.08
2023-01-06T00:46:29.949Z,95.86
2023-01-06T00:48:31.473Z,95.75
2023-01-06T00:50:32.457Z,95.71
2023-01-06T00:52:33.741Z,95.69
2023-01-06T00:54:35.333Z,95.71
2023-01-06T00:56:36.916Z,95.73
2023-01-06T00:58:38.690Z,95.77
2023-01-06T01:00:40.408Z,95.81
2023-01-06T01:02:42.108Z,95.81
2023-01-06T01:04:43.330Z,95.78
2023-01-06T01:06:44.920Z,95.79
2023-01-06T01:08:46.553Z,95.7
2023-01-06T01:12:49.320Z,95.68
2023-01-06T01:14:50.899Z,95.7
2023-01-06T01:16:52.705Z,95.68
2023-01-06T01:18:54.301Z,95.7
2023-01-06T01:22:56.594Z,95.59
2023-01-06T01:24:57.962Z,95.58
2023-01-06T01:26:59.544Z,95.53
2023-01-06T01:29:01.279Z,95.41
2023-01-06T01:31:03.080Z,95.41
2023-01-06T01:33:04.121Z,95.31
2023-01-06T01:35:05.937Z,95.1
2023-01-06T01:37:06.960Z,95.04
2023-01-06T01:39:08.346Z,94.99
2023-01-06T01:41:09.541Z,94.94
2023-01-06T01:43:10.998Z,94.92
2023-01-06T01:45:12.857Z,95.01
2023-01-06T01:47:14.680Z,95.1
2023-01-06T01:49:16.196Z,95.28
2023-01-06T01:51:18.029Z,95.51
2023-01-06T01:55:21.482Z,95.75
2023-01-06T01:57:23.321Z,95.74
2023-01-06T01:59:24.344Z,95.66
2023-01-06T02:01:26.100Z,95.63
2023-01-06T02:05:28.999Z,95.66
2023-01-06T02:07:30.882Z,95.79
2023-01-06T02:09:31.952Z,95.8
2023-01-06T02:11:33.767Z,95.8
2023-01-06T02:13:35.026Z,95.84
2023-01-06T02:15:36.471Z,95.92
2023-01-06T02:17:37.598Z,95.99
2023-01-06T02:19:39.030Z,96.04
2023-01-06T02:21:40.812Z,96.09
2023-01-06T02:23:41.899Z,96.14
2023-01-06T02:25:43.500Z,96.06
2023-01-06T02:27:45.296Z,95.95
2023-01-06T02:29:47.194Z,95.88
2023-01-06T02:31:48.925Z,95.88
2023-01-06T02:33:50.319Z,95.89
2023-01-06T02:35:51.871Z,95.92
2023-01-06T02:37:53.479Z,95.75
2023-01-06T02:39:54.454Z,95.65
2023-01-06T02:41:56.281Z,95.55
2023-01-06T02:43:57.977Z,95.5
2023-01-06T02:45:58.940Z,95.33
2023-01-06T02:48:00.782Z,95.29
2023-01-06T02:50:02.267Z,95.19
2023-01-06T02:54:04.448Z,94.87
2023-01-06T02:56:06.073Z,94.81
2023-01-06T02:58:07.991Z,94.67
2023-01-06T03:00:09.886Z,94.52
2023-01-06T03:02:54.844Z,94.65
2023-01-06T03:04:56.060Z,94.96
2023-01-06T03:06:57.424Z,95.18
2023-01-06T03:08:59.322Z,95.39
2023-01-06T03:11:00.569Z,95.55
2023-01-06T03:13:02.484Z,95.68
2023-01-06T03:15:03.888Z,95.71
2023-01-06T03:17:05.589Z,95.75
2023-01-06T03:19:07.251Z,95.77
2023-01-06T03:21:08.910Z,95.79
2023-01-06T03:23:09.982Z,95.8
2023-01-06T03:25:11.004Z,95.9
2023-01-06T03:27:12.559Z,95.99
2023-01-06T03:29:14.405Z,95.93
2023-01-06T03:31:15.628Z,95.97
2023-01-06T03:33:17.413Z,96.02
2023-01-06T03:35:18.959Z,96.19
2023-01-06T03:37:20.235Z,96.33
2023-01-06T03:41:23.893Z,96.63
2023-01-06T03:43:25.264Z,96.73
2023-01-06T03:45:26.565Z,96.78
2023-01-06T03:47:27.836Z,96.82
2023-01-06T03:49:29.477Z,96.84
2023-01-06T03:51:30.422Z,96.85
2023-01-06T03:53:31.684Z,96.91
2023-01-06T03:55:33.489Z,96.96
2023-01-06T03:57:35.061Z,96.9
2023-01-06T03:59:36.796Z,96.89
2023-01-06T04:01:38.400Z,96.88
2023-01-06T04:03:40.241Z,96.87
2023-01-06T04:05:41.550Z,96.89
2023-01-06T04:07:43.177Z,96.9
2023-01-06T04:09:44.494Z,96.86
2023-01-06T04:11:46.410Z,96.84
2023-01-06T04:13:47.470Z,96.82
2023-01-06T04:15:48.509Z,96.82
2023-01-06T04:17:50.363Z,96.8
2023-01-06T04:19:51.904Z,96.85
2023-01-06T04:23:55.257Z,96.89
2023-01-06T04:25:56.540Z,96.91
2023-01-06T04:27:57.803Z,96.91
2023-01-06T04:29:59.736Z,96.87
2023-01-06T04:32:00.850Z,96.83
2023-01-06T04:34:02.004Z,96.79
2023-01-06T04:36:03.399Z,96.76
2023-01-06T04:38:04.690Z,96.6
2023-01-06T04:40:06.491Z,96.35
2023-01-06T04:42:08.115Z,96.22
2023-01-06T04:44:09.979Z,95.97
2023-01-06T04:46:11.351Z,95.79
2023-01-06T04:48:12.749Z,95.64
2023-01-06T04:50:14.543Z,95.16
2023-01-06T04:52:16.382Z,95.36
2023-01-06T04:56:19.646Z,95.45
2023-01-06T04:58:20.747Z,95.42
2023-01-06T05:00:22.213Z,95.37
2023-01-06T05:02:23.572Z,95.42
2023-01-06T05:06:26.804Z,95.32
2023-01-06T05:08:28.229Z,95.29
2023-01-06T05:10:29.836Z,95.23
2023-01-06T05:12:31.206Z,95.2
2023-01-06T05:14:32.570Z,95.4
2023-01-06T05:16:34.481Z,95.42
2023-01-06T05:18:35.732Z,95.22
2023-01-06T05:20:37.485Z,95.19
2023-01-06T05:22:39.189Z,95.21
2023-01-06T05:24:40.668Z,94.91
2023-01-06T05:26:42.209Z,95.08
2023-01-06T05:28:43.249Z,94.88
2023-01-06T05:30:44.252Z,94.98
2023-01-06T05:32:45.454Z,94.9
2023-01-06T05:34:46.661Z,94.82
2023-01-06T05:36:47.707Z,95.02
2023-01-06T05:38:49.593Z,95.17
2023-01-06T05:40:50.647Z,95.29
2023-01-06T05:42:52.570Z,95.42
2023-01-06T05:44:54.272Z,95.45
2023-01-06T05:46:55.106Z,95.39
2023-01-06T05:48:56.658Z,95.33
2023-01-06T05:50:58.572Z,95.31
2023-01-06T05:55:02.166Z,95.21
2023-01-06T05:57:03.905Z,95.11
2023-01-06T05:59:05.082Z,95.22
2023-01-06T06:01:06.568Z,95.3
2023-01-06T06:03:08.073Z,95.36
2023-01-06T06:05:09.370Z,95.28
2023-01-06T06:07:10.362Z,95.21
2023-01-06T06:09:11.324Z,95.24
2023-01-06T06:11:12.590Z,95.07
2023-01-06T06:13:13.889Z,95.02
2023-01-06T06:15:15.786Z,94.72
2023-01-06T06:17:16.808Z,94.55
2023-01-06T06:19:18.200Z,94.56
2023-01-06T06:21:19.284Z,94.69
2023-01-06T06:23:20.414Z,94.82
2023-01-06T06:25:21.853Z,94.84
2023-01-06T06:27:23.069Z,94.88
2023-01-06T06:29:24.934Z,94.8
2023-01-06T06:31:26.521Z,94.82
2023-01-06T06:33:27.811Z,94.83
2023-01-06T06:35:29.023Z,94.89
2023-01-06T06:37:30.264Z,95.02
2023-01-06T06:39:31.647Z,94.96
2023-01-06T06:41:33.485Z,95.06
2023-01-06T06:43:34.844Z,95.27
2023-01-06T06:47:37.757Z,95.64
2023-01-06T06:49:38.704Z,95.75
2023-01-06T06:51:40.003Z,95.77
2023-01-06T06:53:41.714Z,95.83
2023-01-06T06:55:43.559Z,95.84
2023-01-06T06:57:45.089Z,95.87
2023-01-06T06:59:46.603Z,95.82
2023-01-06T07:01:48.257Z,95.81
2023-01-06T07:03:49.306Z,95.88
2023-01-06T07:05:50.446Z,95.82
2023-01-06T07:07:52.060Z,95.72
2023-01-06T07:09:53.083Z,95.69
2023-01-06T07:11:54.829Z,95.6
2023-01-06T07:13:56.100Z,95.33
2023-01-06T07:15:57.271Z,95.34
2023-01-06T07:20:00.550Z,95.41
2023-01-06T07:22:02.341Z,95.32
2023-01-06T07:24:03.359Z,94.86
2023-01-06T07:26:04.574Z,94.76
2023-01-06T07:30:07.116Z,95.14
2023-01-06T07:32:10.235Z,95.29
2023-01-06T07:34:09.917Z,95.39
2023-01-06T07:36:11.754Z,95.21
2023-01-06T07:38:13.228Z,95.03
2023-01-06T07:40:14.144Z,95.09
2023-01-06T07:42:15.992Z,95.01
2023-01-06T07:44:18.053Z,94.4
2023-01-06T07:46:19.247Z,94.06
2023-01-06T07:48:20.700Z,94.25
2023-01-06T07:50:21.827Z,94.02
2023-01-06T07:52:23.254Z,94.04
2023-01-06T07:54:25.065Z,94.23
2023-01-06T07:56:26.369Z,94.32
2023-01-06T07:58:27.715Z,94.29
2023-01-06T08:02:30.884Z,94.03
2023-01-06T08:04:32.573Z,94.22
2023-01-06T08:06:33.840Z,94.44
2023-01-06T08:08:35.259Z,94.36
2023-01-06T08:12:38.062Z,94.6
2023-01-06T08:14:39.610Z,94.59
2023-01-06T08:16:41.053Z,94.25
2023-01-06T08:18:42.880Z,94.09
2023-01-06T08:20:44.613Z,94.09
2023-01-06T08:22:45.618Z,94.08
2023-01-06T08:24:47.010Z,94.07
2023-01-06T08:26:48.644Z,93.64
2023-01-06T08:28:49.586Z,93.8
2023-01-06T08:30:50.726Z,93.6
2023-01-06T08:32:52.115Z,93.2
2023-01-06T08:34:53.219Z,92.97
2023-01-06T08:36:54.350Z,92.51
2023-01-06T08:38:56.011Z,92.47
2023-01-06T08:40:57.699Z,92.62
2023-01-06T08:42:59.204Z,92.76
2023-01-06T08:45:00.192Z,92.85
2023-01-06T08:47:01.240Z,92.67
2023-01-06T08:49:02.574Z,92.68
2023-01-06T08:51:03.849Z,92.41
2023-01-06T08:53:04.827Z,92.77
2023-01-06T08:55:06.594Z,93.06
2023-01-06T08:57:07.802Z,92.99
2023-01-06T08:59:08.962Z,92.92
2023-01-06T09:01:10.658Z,93
2023-01-06T09:03:12.108Z,93.06
2023-01-06T09:05:13.208Z,93.08
2023-01-06T09:07:14.985Z,92.54
2023-01-06T09:11:18.193Z,91.13
2023-01-06T09:13:20.030Z,90.55
2023-01-06T09:15:21.081Z,89.78
2023-01-06T09:17:22.766Z,89.15
2023-01-06T09:19:23.961Z,89.27
2023-01-06T09:21:25.417Z,88.4
2023-01-06T09:23:26.633Z,88.75
2023-01-06T09:25:27.791Z,87.63
2023-01-06T09:27:28.994Z,87.91
2023-01-06T09:29:30.490Z,88.18
2023-01-06T09:31:32.329Z,88.31
2023-01-06T09:33:33.702Z,86.63
2023-01-06T09:35:35.589Z,87.44
2023-01-06T09:37:37.340Z,87.56
2023-01-06T09:39:38.777Z,88.04
2023-01-06T09:41:40.500Z,87.35
2023-01-06T09:43:42.023Z,87.94
2023-01-06T09:45:43.158Z,87.93
2023-01-06T09:47:44.347Z,87.65
2023-01-06T09:48:28.195Z,87.96
2023-01-06T09:50:29.954Z,88.22
2023-01-06T09:52:31.551Z,88.42
2023-01-06T09:54:32.997Z,87.12
2023-01-06T09:56:34.230Z,87.4
2023-01-06T09:58:35.705Z,87.33
2023-01-06T10:00:36.698Z,87.37
2023-01-06T10:02:38.514Z,87.54
2023-01-06T10:04:39.483Z,87.43
2023-01-06T10:06:40.388Z,87.41
2023-01-06T10:08:41.512Z,87.68
2023-01-06T10:10:42.502Z,87.75
2023-01-06T10:12:43.771Z,88.04
2023-01-06T10:14:45.228Z,87.59
2023-01-06T10:16:46.541Z,87.23
2023-01-06T10:18:47.713Z,87.94
2023-01-06T10:20:50.790Z,87.46
2023-01-06T10:22:50.393Z,87.6
2023-01-06T10:24:51.744Z,87.84
2023-01-06T10:26:53.258Z,87.75
2023-01-06T10:28:54.414Z,87.96
2023-01-06T10:30:56.039Z,87.75
2023-01-06T10:32:57.271Z,87.81
2023-01-06T10:36:59.712Z,87.89
2023-01-06T10:39:01.047Z,87.99
2023-01-06T10:41:02.833Z,88.21
2023-01-06T10:43:03.849Z,88.03
2023-01-06T10:47:07.291Z,88.17
2023-01-06T10:49:08.945Z,88.12
2023-01-06T10:51:10.759Z,88.3
2023-01-06T10:53:12.434Z,88.22
2023-01-06T10:55:13.817Z,87.94
2023-01-06T10:57:15.377Z,87.7
2023-01-06T10:59:16.900Z,87.87
2023-01-06T11:01:18.108Z,87.96
2023-01-06T11:03:32.644Z,88.25
2023-01-06T11:05:20.247Z,87.83
2023-01-06T11:07:21.865Z,87.89
2023-01-06T11:09:22.853Z,88.11
2023-01-06T11:11:28.765Z,88.54
2023-01-06T11:13:25.665Z,87.97
2023-01-06T11:15:26.653Z,87.88
2023-01-06T11:17:28.165Z,87.46
2023-01-06T11:19:29.224Z,87.53
2023-01-06T11:21:39.442Z,87.56
2023-01-06T11:23:32.103Z,87.59
2023-01-06T11:25:33.482Z,86.63
2023-01-06T11:29:36.354Z,85.8
2023-01-06T11:31:38.072Z,85.12
2023-01-06T11:33:39.731Z,84.95
2023-01-06T11:35:41.040Z,84.73
2023-01-06T11:37:42.726Z,85.45
2023-01-06T11:39:46.796Z,84.71
2023-01-06T11:41:45.655Z,84.33
2023-01-06T11:43:47.858Z,84.02
2023-01-06T11:45:48.428Z,83.74
2023-01-06T11:47:49.256Z,83.85
2023-01-06T11:49:50.376Z,84.21
2023-01-06T11:51:52.253Z,84.13
2023-01-06T11:53:53.971Z,84.31
2023-01-06T11:55:55.832Z,84.39
2023-01-06T11:57:57.713Z,84.5
2023-01-06T12:01:59.992Z,83.22
2023-01-06T12:04:01.238Z,83.7
2023-01-06T12:06:02.333Z,84.2
2023-01-06T12:08:04.010Z,84.39
2023-01-06T12:10:05.667Z,83.96
2023-01-06T12:12:07.535Z,84.49
2023-01-06T12:14:19.509Z,83.77
2023-01-06T12:16:10.834Z,83.37
2023-01-06T12:18:11.850Z,83.5
2023-01-06T12:20:13.446Z,83.22
2023-01-06T12:22:14.816Z,83.13
2023-01-06T12:24:16.713Z,83.72
2023-01-06T12:26:17.819Z,83.38
2023-01-06T12:28:19.567Z,83.81
2023-01-06T12:30:20.468Z,83.53
2023-01-06T12:32:22.109Z,83.16
2023-01-06T12:34:23.937Z,83.25
2023-01-06T12:36:25.362Z,82.32
2023-01-06T12:38:26.840Z,82.42
2023-01-06T12:40:28.029Z,82.75
2023-01-06T12:44:31.503Z,82.34
2023-01-06T12:46:33.018Z,81.95
2023-01-06T12:48:34.010Z,81.87
2023-01-06T12:50:35.724Z,81.71
2023-01-06T12:52:36.992Z,81.03
2023-01-06T12:54:38.283Z,81.23
2023-01-06T12:56:40.015Z,81.42
2023-01-06T12:58:41.201Z,80.98
2023-01-06T13:00:42.491Z,80.93
2023-01-06T13:02:43.687Z,80.54
2023-01-06T13:04:45.468Z,80.62
2023-01-06T13:06:46.988Z,81.05
2023-01-06T13:08:48.467Z,81.31
2023-01-06T13:10:49.779Z,81.11
2023-01-06T13:12:51.379Z,81.03
2023-01-06T13:16:53.550Z,81.33
2023-01-06T13:18:55.204Z,80.56
2023-01-06T13:20:56.707Z,80.92
2023-01-06T13:22:58.079Z,80.85
2023-01-06T13:27:01.245Z,80.88
2023-01-06T13:29:02.909Z,80.26
2023-01-06T13:31:04.461Z,80.81
2023-01-06T13:33:06.611Z,80.59
2023-01-06T13:35:06.976Z,80.83
2023-01-06T13:37:08.269Z,80.89
2023-01-06T13:39:09.815Z,81.11
2023-01-06T13:41:11.443Z,81.15
2023-01-06T13:43:12.463Z,81.27
2023-01-06T13:45:14.410Z,81.43
2023-01-06T13:47:16.244Z,81.33
2023-01-06T13:49:17.476Z,81.48
2023-01-06T13:51:19.133Z,81.29
2023-01-06T13:53:20.638Z,81.21
2023-01-06T13:55:21.613Z,81.68
2023-01-06T13:59:24.822Z,81.31
2023-01-06T14:01:26.532Z,81.25
2023-01-06T14:03:27.545Z,81.33
2023-01-06T14:05:28.925Z,81.49
2023-01-06T14:09:32.214Z,81.27
2023-01-06T14:11:33.195Z,81.51
2023-01-06T14:15:35.631Z,81.49
2023-01-06T14:17:37.060Z,81.22
2023-01-06T14:19:38.611Z,81.91
2023-01-06T14:21:40.367Z,81.84
2023-01-06T14:25:43.126Z,81.88
2023-01-06T14:27:44.878Z,81.89
2023-01-06T14:29:46.128Z,82.11
2023-01-06T14:31:47.280Z,82.42
2023-01-06T14:33:49.067Z,82.19
2023-01-06T14:35:50.074Z,82.23
2023-01-06T14:37:51.127Z,82.44
2023-01-06T14:39:52.245Z,82.44
2023-01-06T14:41:53.473Z,82.01
2023-01-06T14:43:54.425Z,82.3
2023-01-06T14:45:56.222Z,82.42
2023-01-06T14:47:57.617Z,82.6
2023-01-06T14:49:58.979Z,82.72
2023-01-06T14:52:00.257Z,82.36
2023-01-06T14:54:01.369Z,82.65
2023-01-06T14:56:02.825Z,83.18
2023-01-06T14:58:04.326Z,83.24
2023-01-06T15:00:05.967Z,82.6
2023-01-06T15:02:07.816Z,82.53
2023-01-06T15:04:09.504Z,83
2023-01-06T15:08:11.800Z,82.68
2023-01-06T15:10:13.006Z,82.94
2023-01-06T15:12:14.533Z,82.77
2023-01-06T15:14:15.864Z,82.66
2023-01-06T15:16:17.729Z,82.82
2023-01-06T15:18:18.824Z,82.83
2023-01-06T15:20:19.960Z,82.7
2023-01-06T15:22:21.241Z,82.74
2023-01-06T15:24:22.207Z,83.14
2023-01-06T15:26:23.133Z,83.45
2023-01-06T15:28:24.404Z,83.66
2023-01-06T15:30:25.412Z,83.53
2023-01-06T15:32:26.449Z,83.21
2023-01-06T15:34:28.077Z,83.37
2023-01-06T15:36:29.561Z,83.46
2023-01-06T15:40:33.222Z,83.63
2023-01-06T15:42:34.275Z,83.91
2023-01-06T15:44:35.357Z,83.71
2023-01-06T15:46:36.679Z,83.59
2023-01-06T15:50:39.356Z,83.97
2023-01-06T15:52:40.997Z,83.9
2023-01-06T15:54:42.033Z,84.02
2023-01-06T15:56:43.573Z,83.57
2023-01-06T15:58:44.698Z,83.69
2023-01-06T16:00:46.228Z,83.55
2023-01-06T16:02:48.059Z,83.68
2023-01-06T16:04:49.750Z,83.3
2023-01-06T16:06:51.525Z,83.25
2023-01-06T16:08:53.278Z,83.39
2023-01-06T16:10:54.495Z,83.61
2023-01-06T16:12:55.939Z,83.88
2023-01-06T16:14:57.839Z,83.75
2023-01-06T16:16:59.101Z,82.67
2023-01-06T16:19:00.971Z,83.18
2023-01-06T16:21:02.641Z,83.3
2023-01-06T16:23:03.892Z,83.17
2023-01-06T16:25:04.992Z,83.07
2023-01-06T16:27:06.480Z,82.95
2023-01-06T16:29:07.667Z,83.15
2023-01-06T16:33:10.290Z,83.27
2023-01-06T16:33:54.114Z,83.26
2023-01-06T16:35:55.723Z,83.22
2023-01-06T16:37:57.674Z,83.08
2023-01-06T16:39:59.162Z,82.58
2023-01-06T16:44:01.459Z,82.16
2023-01-06T16:46:02.621Z,82.43
2023-01-06T16:48:03.590Z,82.79
2023-01-06T16:50:05.481Z,82.53
2023-01-06T16:52:06.580Z,82.26
2023-01-06T16:54:07.846Z,82.44
2023-01-06T16:56:09.116Z,82.7
2023-01-06T16:58:10.755Z,82.88
2023-01-06T17:00:12.281Z,82.64
2023-01-06T17:02:13.360Z,82.23
2023-01-06T17:04:14.564Z,82.97
2023-01-06T17:06:15.618Z,82.95
2023-01-06T17:08:17.229Z,82.99
2023-01-06T17:10:18.138Z,82.73
2023-01-06T17:12:19.535Z,82.86
2023-01-06T17:14:21.185Z,82.9
2023-01-06T17:16:22.578Z,82.54
2023-01-06T17:18:23.987Z,82.75
2023-01-06T17:20:25.382Z,82.58
2023-01-06T17:22:26.434Z,82.46
2023-01-06T17:26:29.345Z,83.02
2023-01-06T17:28:30.821Z,82.91
2023-01-06T17:30:32.732Z,82.96
2023-01-06T17:32:42.121Z,82.32
2023-01-06T17:34:35.395Z,82.76
2023-01-06T17:36:36.690Z,82.78
2023-01-06T17:38:37.738Z,82.99
2023-01-06T17:40:39.583Z,83.16
2023-01-06T17:42:40.865Z,83.01
2023-01-06T17:44:41.830Z,82.69
2023-01-06T17:46:42.996Z,82.88
2023-01-06T17:48:43.869Z,82.96
2023-01-06T17:50:45.569Z,83.24
2023-01-06T17:52:46.672Z,83.52
2023-01-06T17:54:47.946Z,82.83
2023-01-06T17:58:50.716Z,83.06
2023-01-06T18:00:51.802Z,83.27
2023-01-06T18:02:52.943Z,83.27
2023-01-06T18:04:54.148Z,83.16
2023-01-06T18:08:56.455Z,83.65
2023-01-06T18:10:57.917Z,83.7
2023-01-06T18:12:59.513Z,83.65
2023-01-06T18:15:00.639Z,83.66
2023-01-06T18:17:02.518Z,83.44
2023-01-06T18:19:03.941Z,83.69
2023-01-06T18:21:05.286Z,83.8
2023-01-06T18:23:07.062Z,83.61
2023-01-06T18:25:08.458Z,83.46
2023-01-06T18:27:09.621Z,83.26
2023-01-06T18:29:11.447Z,83.28
2023-01-06T18:31:13.057Z,83.25
2023-01-06T18:33:14.898Z,83.35
2023-01-06T18:35:15.942Z,83.33
2023-01-06T18:37:17.704Z,83.26
2023-01-06T18:39:18.785Z,82.52
2023-01-06T18:41:20.048Z,82.9
2023-01-06T18:43:21.792Z,82.86
2023-01-06T18:45:23.696Z,83.2
2023-01-06T18:47:24.739Z,82.84
2023-01-06T18:49:26.057Z,82.97
2023-01-06T18:51:27.638Z,83.08
2023-01-06T18:53:29.477Z,82.88
2023-01-06T18:57:32.354Z,82.98
2023-01-06T18:59:33.669Z,83.14
2023-01-06T19:01:35.293Z,83.32
2023-01-06T19:03:36.642Z,83.26
2023-01-06T19:07:39.731Z,83.67
2023-01-06T19:09:41.145Z,83.59
2023-01-06T19:11:43.071Z,83.81
2023-01-06T19:13:44.668Z,83.87
2023-01-06T19:15:46.053Z,84.02
2023-01-06T19:17:47.719Z,83.95
2023-01-06T19:19:49.217Z,84.11
2023-01-06T19:21:51.076Z,84.24
2023-01-06T19:23:52.707Z,84.41
2023-01-06T19:25:54.477Z,84.29
2023-01-06T19:27:55.738Z,84.43
2023-01-06T19:29:56.787Z,83.5
2023-01-06T19:31:58.025Z,83.77
2023-01-06T19:33:59.526Z,83.48
2023-01-06T19:36:00.575Z,83.6
2023-01-06T19:40:03.388Z,84.18
2023-01-06T19:42:04.782Z,84.27
2023-01-06T19:44:06.585Z,84.11
2023-01-06T19:46:07.994Z,83.76
2023-01-06T19:50:10.545Z,83.79
2023-01-06T19:52:12.321Z,84.18
2023-01-06T19:54:13.506Z,84.19
2023-01-06T19:56:15.092Z,84.42
2023-01-06T19:58:16.935Z,84.66
2023-01-06T20:00:18.309Z,84.67
2023-01-06T20:02:19.539Z,84.59
2023-01-06T20:04:20.862Z,84.64
2023-01-06T20:06:22.258Z,84.71
2023-01-06T20:08:23.779Z,84.49
2023-01-06T20:10:24.907Z,84.69
2023-01-06T20:12:26.659Z,84.95
2023-01-06T20:14:28.340Z,84.91
2023-01-06T20:16:29.850Z,84.7
2023-01-06T20:18:31.608Z,84.48
2023-01-06T20:20:32.903Z,84.54
2023-01-06T20:22:34.562Z,84.7
2023-01-06T20:24:35.661Z,84.72
2023-01-06T20:26:37.350Z,84.89
2023-01-06T20:28:38.693Z,84.65
2023-01-06T20:32:41.534Z,84.83
2023-01-06T20:34:43.460Z,84.78
2023-01-06T20:36:45.334Z,84.98
2023-01-06T20:38:46.756Z,84.97
2023-01-06T20:40:48.075Z,84.67
2023-01-06T20:42:49.861Z,84.83
2023-01-06T20:44:50.947Z,84.71
2023-01-06T20:46:52.812Z,84.5
2023-01-06T20:48:54.019Z,84.39
2023-01-06T20:50:55.681Z,83.08
2023-01-06T20:52:57.233Z,83
2023-01-06T20:54:58.940Z,83.65
2023-01-06T20:57:00.415Z,83.34
2023-01-06T20:59:01.493Z,83.19
2023-01-06T21:01:02.618Z,83.71
2023-01-06T21:03:04.425Z,83.55
2023-01-06T21:05:06.057Z,83.34
2023-01-06T21:07:07.101Z,83.69
2023-01-06T21:09:08.614Z,83.8
2023-01-06T21:11:09.560Z,83.94
2023-01-06T21:15:12.765Z,84.22
2023-01-06T21:17:13.987Z,84.52
2023-01-06T21:19:15.276Z,84.33
2023-01-06T21:21:16.134Z,84.1
2023-01-06T21:23:17.293Z,83.75
2023-01-06T21:25:19.006Z,83.83
2023-01-06T21:27:20.284Z,84.03
2023-01-06T21:29:21.446Z,84.16
2023-01-06T21:31:22.792Z,83.95
2023-01-06T21:33:24.012Z,83.8
2023-01-06T21:35:25.762Z,83.33
2023-01-06T21:37:27.601Z,83.8
2023-01-06T21:39:29.292Z,84
2023-01-06T21:41:30.222Z,83.65
2023-01-06T21:43:31.218Z,83.62
2023-01-06T21:47:34.397Z,83.64
2023-01-06T21:49:35.449Z,83.6
2023-01-06T21:51:37.077Z,83.59
2023-01-06T21:53:38.051Z,83.38
2023-01-06T21:57:41.015Z,82.79
2023-01-06T21:59:42.323Z,82.93
2023-01-06T22:03:45.594Z,83.18
2023-01-06T22:05:46.878Z,82.67
2023-01-06T22:07:47.946Z,82.78
2023-01-06T22:09:49.588Z,83.09
2023-01-06T22:13:53.189Z,82.79
2023-01-06T22:15:54.295Z,83.15
2023-01-06T22:17:56.244Z,83.13
2023-01-06T22:19:57.410Z,83.42
2023-01-06T22:21:59.096Z,83.3
2023-01-06T22:24:00.467Z,83.36
2023-01-06T22:26:01.807Z,83.57
2023-01-06T22:28:03.095Z,83.36
2023-01-06T22:30:04.621Z,83.23
2023-01-06T22:32:06.080Z,83.12
2023-01-06T22:34:07.802Z,83.34
2023-01-06T22:36:09.569Z,83.4
2023-01-06T22:38:11.355Z,83.23
2023-01-06T22:40:12.922Z,83.31
2023-01-06T22:42:14.329Z,83.61
2023-01-06T22:46:17.240Z,83.59
2023-01-06T22:48:18.485Z,83.47
2023-01-06T22:50:20.082Z,83.51
2023-01-06T22:52:21.103Z,83.49
2023-01-06T22:56:23.310Z,83.79
2023-01-06T22:58:25.120Z,83.76
2023-01-06T23:00:26.538Z,83.99
2023-01-06T23:02:27.968Z,83.95
2023-01-06T23:04:29.513Z,84.09
2023-01-06T23:06:30.944Z,84.35
2023-01-06T23:08:32.201Z,83.78
2023-01-06T23:10:34.028Z,83.83
2023-01-06T23:12:35.376Z,84.16
2023-01-06T23:14:36.715Z,84.34
2023-01-06T23:16:38.050Z,84.38
2023-01-06T23:18:39.182Z,84.25
2023-01-06T23:21:24.804Z,84.39
2023-01-06T23:23:26.479Z,84.64
2023-01-06T23:25:27.946Z,84.83
2023-01-06T23:27:31.282Z,84.84
2023-01-06T23:29:30.776Z,84.86
2023-01-06T23:33:33.463Z,84.89
2023-01-06T23:35:34.829Z,84.95
2023-01-06T23:37:36.580Z,85.07
2023-01-06T23:39:38.151Z,85.21
2023-01-06T23:41:39.396Z,84.82
2023-01-06T23:43:40.720Z,84.62
2023-01-06T23:45:41.788Z,84.78
2023-01-06T23:47:43.273Z,85.06
2023-01-06T23:49:44.652Z,85.2
2023-01-06T23:51:45.882Z,85.26
2023-01-06T23:53:47.036Z,85.32
2023-01-06T23:55:48.847Z,85.21
2023-01-06T23:57:49.966Z,85.25
2023-01-06T23:59:51.577Z,85.21
